Kwajalein/Bucholz, Marshall Islands
Current Conditions -  °F | °C
As of 4:20 PM on Wednesday 28 Jan 2015 (Local Time) from PKWA Reporting Station
Scattered Clouds Scattered Clouds  
Wind Chill: 84°   Ceiling: Unl
Heat Index: 90°   Visibility: 10mi
Dew Point: 73°   Wind: 18mph
Humidity: 68%   Direction: 40°NE
Pressure: 29.73"   Gusts: 23mph
Location:  8.73°N, 167.73°E
Report Text: PKWA 280420Z AUTO 04016G20KT 10SM SCT019 SCT027 29/23 A2973 RMK AO2 T02890225
Loading
Personal Weather Stations






























Interactive Weather Map New forecast layout! Learn more

10-Day Weather Forecast

Advertisements
Track Severe Weather on mobile